sensor_id;sensor_type;location;lat;lon;timestamp;P1;durP1;ratioP1;P2;durP2;ratioP2
50547;SDS011;38013;48.810;8.818;2022-12-05T00:02:21;13.88;;;7.47;;
50547;SDS011;38013;48.810;8.818;2022-12-05T00:04:47;13.43;;;6.95;;
50547;SDS011;38013;48.810;8.818;2022-12-05T00:07:12;13.32;;;7.25;;
50547;SDS011;38013;48.810;8.818;2022-12-05T00:09:38;14.25;;;6.97;;
50547;SDS011;38013;48.810;8.818;2022-12-05T00:12:04;14.93;;;7.50;;
50547;SDS011;38013;48.810;8.818;2022-12-05T00:14:30;12.45;;;6.53;;
50547;SDS011;38013;48.810;8.818;2022-12-05T00:16:56;11.23;;;6.72;;
50547;SDS011;38013;48.810;8.818;2022-12-05T00:19:21;13.20;;;7.22;;
50547;SDS011;38013;48.810;8.818;2022-12-05T00:21:47;11.73;;;6.22;;
50547;SDS011;38013;48.810;8.818;2022-12-05T00:24:14;13.10;;;6.88;;
50547;SDS011;38013;48.810;8.818;2022-12-05T00:26:40;10.85;;;6.20;;
50547;SDS011;38013;48.810;8.818;2022-12-05T00:29:07;12.45;;;7.15;;
50547;SDS011;38013;48.810;8.818;2022-12-05T00:31:33;11.10;;;6.30;;
50547;SDS011;38013;48.810;8.818;2022-12-05T00:33:59;11.27;;;6.72;;
50547;SDS011;38013;48.810;8.818;2022-12-05T00:36:28;11.35;;;6.40;;
50547;SDS011;38013;48.810;8.818;2022-12-05T00:39:00;11.00;;;6.72;;
50547;SDS011;38013;48.810;8.818;2022-12-05T00:41:30;12.57;;;6.53;;
50547;SDS011;38013;48.810;8.818;2022-12-05T00:43:57;12.27;;;6.00;;
50547;SDS011;38013;48.810;8.818;2022-12-05T00:46:25;11.48;;;6.10;;
50547;SDS011;38013;48.810;8.818;2022-12-05T00:48:53;11.20;;;6.53;;
50547;SDS011;38013;48.810;8.818;2022-12-05T00:51:25;11.77;;;6.40;;
50547;SDS011;38013;48.810;8.818;2022-12-05T00:53:57;11.45;;;6.00;;
50547;SDS011;38013;48.810;8.818;2022-12-05T00:56:30;10.85;;;6.65;;
50547;SDS011;38013;48.810;8.818;2022-12-05T00:58:56;11.50;;;6.10;;
50547;SDS011;38013;48.810;8.818;2022-12-05T01:04:04;9.95;;;5.97;;
50547;SDS011;38013;48.810;8.818;2022-12-05T01:06:35;10.82;;;6.15;;
50547;SDS011;38013;48.810;8.818;2022-12-05T01:09:02;11.43;;;6.32;;
50547;SDS011;38013;48.810;8.818;2022-12-05T01:11:30;10.00;;;5.78;;
50547;SDS011;38013;48.810;8.818;2022-12-05T01:13:56;10.38;;;5.80;;
50547;SDS011;38013;48.810;8.818;2022-12-05T01:16:26;9.50;;;6.03;;
50547;SDS011;38013;48.810;8.818;2022-12-05T01:18:56;11.02;;;5.90;;
50547;SDS011;38013;48.810;8.818;2022-12-05T01:21:24;9.57;;;5.32;;
50547;SDS011;38013;48.810;8.818;2022-12-05T01:23:50;13.05;;;6.45;;
50547;SDS011;38013;48.810;8.818;2022-12-05T01:26:17;10.00;;;5.32;;
50547;SDS011;38013;48.810;8.818;2022-12-05T01:28:45;10.32;;;5.78;;
50547;SDS011;38013;48.810;8.818;2022-12-05T01:31:25;10.40;;;6.07;;
50547;SDS011;38013;48.810;8.818;2022-12-05T01:33:58;9.48;;;5.38;;
50547;SDS011;38013;48.810;8.818;2022-12-05T01:36:26;10.50;;;6.05;;
50547;SDS011;38013;48.810;8.818;2022-12-05T01:38:53;11.85;;;6.10;;
50547;SDS011;38013;48.810;8.818;2022-12-05T01:41:23;9.70;;;5.43;;
50547;SDS011;38013;48.810;8.818;2022-12-05T01:44:03;10.10;;;5.57;;
50547;SDS011;38013;48.810;8.818;2022-12-05T01:46:30;9.15;;;5.10;;
50547;SDS011;38013;48.810;8.818;2022-12-05T01:49:13;8.82;;;4.93;;
50547;SDS011;38013;48.810;8.818;2022-12-05T01:52:14;9.23;;;4.75;;
50547;SDS011;38013;48.810;8.818;2022-12-05T01:54:45;9.77;;;5.55;;
50547;SDS011;38013;48.810;8.818;2022-12-05T01:57:15;9.88;;;5.80;;
50547;SDS011;38013;48.810;8.818;2022-12-05T01:59:43;8.27;;;5.00;;
50547;SDS011;38013;48.810;8.818;2022-12-05T02:02:12;8.80;;;5.18;;
50547;SDS011;38013;48.810;8.818;2022-12-05T02:04:42;11.32;;;6.00;;
50547;SDS011;38013;48.810;8.818;2022-12-05T02:07:23;8.90;;;5.60;;
50547;SDS011;38013;48.810;8.818;2022-12-05T02:09:49;9.57;;;5.10;;
50547;SDS011;38013;48.810;8.818;2022-12-05T02:12:15;10.18;;;5.57;;
50547;SDS011;38013;48.810;8.818;2022-12-05T02:20:25;10.40;;;6.05;;
50547;SDS011;38013;48.810;8.818;2022-12-05T02:23:19;11.27;;;6.15;;
50547;SDS011;38013;48.810;8.818;2022-12-05T02:26:07;10.70;;;6.22;;
50547;SDS011;38013;48.810;8.818;2022-12-05T02:32:02;13.30;;;6.45;;
50547;SDS011;38013;48.810;8.818;2022-12-05T02:40:13;12.65;;;7.22;;
50547;SDS011;38013;48.810;8.818;2022-12-05T02:43:09;12.85;;;7.05;;
50547;SDS011;38013;48.810;8.818;2022-12-05T02:45:47;13.25;;;7.35;;
50547;SDS011;38013;48.810;8.818;2022-12-05T02:48:17;14.57;;;7.78;;
50547;SDS011;38013;48.810;8.818;2022-12-05T02:50:44;13.82;;;7.45;;
50547;SDS011;38013;48.810;8.818;2022-12-05T02:53:13;15.30;;;7.75;;
50547;SDS011;38013;48.810;8.818;2022-12-05T02:55:42;15.15;;;7.50;;
50547;SDS011;38013;48.810;8.818;2022-12-05T02:58:18;15.57;;;7.97;;
50547;SDS011;38013;48.810;8.818;2022-12-05T03:00:52;13.95;;;7.63;;
50547;SDS011;38013;48.810;8.818;2022-12-05T03:03:20;16.23;;;7.53;;
50547;SDS011;38013;48.810;8.818;2022-12-05T03:11:16;16.45;;;8.05;;
50547;SDS011;38013;48.810;8.818;2022-12-05T03:13:43;16.60;;;8.73;;
50547;SDS011;38013;48.810;8.818;2022-12-05T03:16:24;17.10;;;7.97;;
50547;SDS011;38013;48.810;8.818;2022-12-05T03:19:00;16.00;;;8.48;;
50547;SDS011;38013;48.810;8.818;2022-12-05T03:21:33;15.52;;;8.52;;
50547;SDS011;38013;48.810;8.818;2022-12-05T03:24:08;17.10;;;8.63;;
50547;SDS011;38013;48.810;8.818;2022-12-05T03:35:13;17.77;;;9.15;;
50547;SDS011;38013;48.810;8.818;2022-12-05T03:46:23;17.55;;;9.02;;
50547;SDS011;38013;48.810;8.818;2022-12-05T03:49:08;17.02;;;8.52;;
50547;SDS011;38013;48.810;8.818;2022-12-05T03:54:52;19.77;;;9.20;;
50547;SDS011;38013;48.810;8.818;2022-12-05T03:57:24;18.30;;;9.45;;
50547;SDS011;38013;48.810;8.818;2022-12-05T03:59:59;17.50;;;9.82;;
50547;SDS011;38013;48.810;8.818;2022-12-05T04:02:34;23.75;;;10.27;;
50547;SDS011;38013;48.810;8.818;2022-12-05T04:05:34;17.25;;;8.68;;
50547;SDS011;38013;48.810;8.818;2022-12-05T04:10:52;21.00;;;10.00;;
50547;SDS011;38013;48.810;8.818;2022-12-05T04:13:39;21.15;;;10.30;;
50547;SDS011;38013;48.810;8.818;2022-12-05T04:19:35;19.27;;;9.35;;
50547;SDS011;38013;48.810;8.818;2022-12-05T04:22:31;21.67;;;9.60;;
50547;SDS011;38013;48.810;8.818;2022-12-05T04:24:58;19.98;;;9.50;;
50547;SDS011;38013;48.810;8.818;2022-12-05T04:30:42;23.35;;;9.93;;
50547;SDS011;38013;48.810;8.818;2022-12-05T04:33:10;22.58;;;10.82;;
50547;SDS011;38013;48.810;8.818;2022-12-05T04:39:01;20.23;;;10.68;;
50547;SDS011;38013;48.810;8.818;2022-12-05T04:41:56;25.17;;;11.40;;
50547;SDS011;38013;48.810;8.818;2022-12-05T04:44:30;19.35;;;9.43;;
50547;SDS011;38013;48.810;8.818;2022-12-05T04:47:02;21.80;;;10.50;;
50547;SDS011;38013;48.810;8.818;2022-12-05T04:49:31;22.50;;;10.48;;
50547;SDS011;38013;48.810;8.818;2022-12-05T04:52:00;19.42;;;9.50;;
50547;SDS011;38013;48.810;8.818;2022-12-05T05:00:44;19.33;;;9.50;;
50547;SDS011;38013;48.810;8.818;2022-12-05T05:03:17;18.48;;;9.68;;
50547;SDS011;38013;48.810;8.818;2022-12-05T05:06:12;17.80;;;9.20;;
50547;SDS011;38013;48.810;8.818;2022-12-05T05:08:52;19.95;;;8.60;;
50547;SDS011;38013;48.810;8.818;2022-12-05T05:11:24;18.25;;;9.98;;
50547;SDS011;38013;48.810;8.818;2022-12-05T05:13:52;17.10;;;9.07;;
50547;SDS011;38013;48.810;8.818;2022-12-05T05:16:24;15.50;;;8.90;;
50547;SDS011;38013;48.810;8.818;2022-12-05T05:18:54;19.30;;;10.13;;
50547;SDS011;38013;48.810;8.818;2022-12-05T05:24:00;18.70;;;10.40;;
50547;SDS011;38013;48.810;8.818;2022-12-05T05:26:27;27.45;;;9.35;;
50547;SDS011;38013;48.810;8.818;2022-12-05T05:28:55;15.23;;;9.18;;
50547;SDS011;38013;48.810;8.818;2022-12-05T05:31:22;17.25;;;9.38;;
50547;SDS011;38013;48.810;8.818;2022-12-05T05:33:52;15.80;;;9.15;;
50547;SDS011;38013;48.810;8.818;2022-12-05T05:36:21;18.42;;;9.45;;
50547;SDS011;38013;48.810;8.818;2022-12-05T05:38:49;16.20;;;8.48;;
50547;SDS011;38013;48.810;8.818;2022-12-05T05:43:45;14.70;;;7.75;;
50547;SDS011;38013;48.810;8.818;2022-12-05T05:46:12;13.65;;;7.43;;
50547;SDS011;38013;48.810;8.818;2022-12-05T05:48:39;16.85;;;8.55;;
50547;SDS011;38013;48.810;8.818;2022-12-05T05:51:06;17.38;;;8.80;;
50547;SDS011;38013;48.810;8.818;2022-12-05T05:53:34;14.77;;;8.65;;
50547;SDS011;38013;48.810;8.818;2022-12-05T05:56:01;15.98;;;8.93;;
50547;SDS011;38013;48.810;8.818;2022-12-05T05:58:32;16.98;;;9.38;;
50547;SDS011;38013;48.810;8.818;2022-12-05T06:01:17;14.93;;;7.95;;
50547;SDS011;38013;48.810;8.818;2022-12-05T06:03:46;16.60;;;9.02;;
50547;SDS011;38013;48.810;8.818;2022-12-05T06:06:14;15.80;;;8.50;;
50547;SDS011;38013;48.810;8.818;2022-12-05T06:08:42;17.17;;;9.13;;
50547;SDS011;38013;48.810;8.818;2022-12-05T06:11:16;16.52;;;8.48;;
50547;SDS011;38013;48.810;8.818;2022-12-05T06:13:44;14.82;;;8.25;;
50547;SDS011;38013;48.810;8.818;2022-12-05T06:16:12;16.20;;;8.38;;
50547;SDS011;38013;48.810;8.818;2022-12-05T06:18:40;14.38;;;7.57;;
50547;SDS011;38013;48.810;8.818;2022-12-05T06:21:06;13.00;;;7.40;;
50547;SDS011;38013;48.810;8.818;2022-12-05T06:23:36;14.77;;;7.65;;
50547;SDS011;38013;48.810;8.818;2022-12-05T06:26:04;15.63;;;8.63;;
50547;SDS011;38013;48.810;8.818;2022-12-05T06:28:35;15.77;;;9.18;;
50547;SDS011;38013;48.810;8.818;2022-12-05T06:31:10;17.73;;;9.10;;
50547;SDS011;38013;48.810;8.818;2022-12-05T06:33:39;15.48;;;8.00;;
50547;SDS011;38013;48.810;8.818;2022-12-05T06:36:06;15.68;;;8.10;;
50547;SDS011;38013;48.810;8.818;2022-12-05T06:41:03;14.48;;;7.65;;
50547;SDS011;38013;48.810;8.818;2022-12-05T06:43:32;12.48;;;7.45;;
50547;SDS011;38013;48.810;8.818;2022-12-05T06:45:58;15.25;;;8.27;;
50547;SDS011;38013;48.810;8.818;2022-12-05T06:48:28;13.73;;;7.20;;
50547;SDS011;38013;48.810;8.818;2022-12-05T06:50:54;15.27;;;8.35;;
50547;SDS011;38013;48.810;8.818;2022-12-05T06:53:20;17.02;;;8.65;;
50547;SDS011;38013;48.810;8.818;2022-12-05T06:55:56;14.55;;;7.38;;
50547;SDS011;38013;48.810;8.818;2022-12-05T06:58:28;14.93;;;8.48;;
50547;SDS011;38013;48.810;8.818;2022-12-05T07:00:54;15.38;;;8.63;;
50547;SDS011;38013;48.810;8.818;2022-12-05T07:03:39;22.00;;;11.52;;
50547;SDS011;38013;48.810;8.818;2022-12-05T07:06:06;15.55;;;7.88;;
50547;SDS011;38013;48.810;8.818;2022-12-05T07:08:32;16.23;;;8.35;;
50547;SDS011;38013;48.810;8.818;2022-12-05T07:10:58;14.63;;;8.32;;
50547;SDS011;38013;48.810;8.818;2022-12-05T07:13:24;12.90;;;8.02;;
50547;SDS011;38013;48.810;8.818;2022-12-05T07:15:49;14.40;;;8.43;;
50547;SDS011;38013;48.810;8.818;2022-12-05T07:18:16;13.82;;;8.18;;
50547;SDS011;38013;48.810;8.818;2022-12-05T07:20:42;12.38;;;7.10;;
50547;SDS011;38013;48.810;8.818;2022-12-05T07:23:09;12.43;;;7.22;;
50547;SDS011;38013;48.810;8.818;2022-12-05T07:25:38;13.32;;;7.60;;
50547;SDS011;38013;48.810;8.818;2022-12-05T07:28:05;11.77;;;6.88;;
50547;SDS011;38013;48.810;8.818;2022-12-05T07:30:31;12.13;;;6.78;;
50547;SDS011;38013;48.810;8.818;2022-12-05T07:32:57;12.73;;;6.82;;
50547;SDS011;38013;48.810;8.818;2022-12-05T07:35:23;12.18;;;6.75;;
50547;SDS011;38013;48.810;8.818;2022-12-05T07:37:49;11.80;;;7.00;;
50547;SDS011;38013;48.810;8.818;2022-12-05T07:40:14;12.93;;;7.22;;
50547;SDS011;38013;48.810;8.818;2022-12-05T07:42:40;13.95;;;7.07;;
50547;SDS011;38013;48.810;8.818;2022-12-05T07:45:06;11.43;;;7.03;;
50547;SDS011;38013;48.810;8.818;2022-12-05T07:47:33;10.52;;;6.32;;
50547;SDS011;38013;48.810;8.818;2022-12-05T07:49:58;10.60;;;6.85;;
50547;SDS011;38013;48.810;8.818;2022-12-05T07:52:24;10.50;;;6.13;;
50547;SDS011;38013;48.810;8.818;2022-12-05T07:54:52;11.25;;;6.63;;
50547;SDS011;38013;48.810;8.818;2022-12-05T07:57:17;10.80;;;6.65;;
50547;SDS011;38013;48.810;8.818;2022-12-05T07:59:44;9.82;;;5.95;;
50547;SDS011;38013;48.810;8.818;2022-12-05T08:02:09;10.75;;;6.50;;
50547;SDS011;38013;48.810;8.818;2022-12-05T08:04:35;10.43;;;6.28;;
50547;SDS011;38013;48.810;8.818;2022-12-05T08:07:01;10.23;;;6.22;;
50547;SDS011;38013;48.810;8.818;2022-12-05T08:09:27;10.15;;;6.25;;
50547;SDS011;38013;48.810;8.818;2022-12-05T08:11:53;11.45;;;6.82;;
50547;SDS011;38013;48.810;8.818;2022-12-05T08:14:18;10.18;;;6.25;;
50547;SDS011;38013;48.810;8.818;2022-12-05T08:16:44;11.40;;;6.80;;
50547;SDS011;38013;48.810;8.818;2022-12-05T08:19:10;10.73;;;6.35;;
50547;SDS011;38013;48.810;8.818;2022-12-05T08:21:37;12.38;;;7.03;;
50547;SDS011;38013;48.810;8.818;2022-12-05T08:24:04;11.60;;;6.63;;
50547;SDS011;38013;48.810;8.818;2022-12-05T08:26:32;11.98;;;7.43;;
50547;SDS011;38013;48.810;8.818;2022-12-05T08:29:00;10.65;;;6.82;;
50547;SDS011;38013;48.810;8.818;2022-12-05T08:33:58;13.77;;;6.90;;
50547;SDS011;38013;48.810;8.818;2022-12-05T08:36:24;12.98;;;7.30;;
50547;SDS011;38013;48.810;8.818;2022-12-05T08:38:59;12.80;;;7.63;;
50547;SDS011;38013;48.810;8.818;2022-12-05T08:41:28;14.25;;;7.75;;
50547;SDS011;38013;48.810;8.818;2022-12-05T08:43:55;12.13;;;7.05;;
50547;SDS011;38013;48.810;8.818;2022-12-05T08:46:22;13.02;;;7.13;;
50547;SDS011;38013;48.810;8.818;2022-12-05T08:48:48;12.55;;;7.47;;
50547;SDS011;38013;48.810;8.818;2022-12-05T08:51:14;11.23;;;6.88;;
50547;SDS011;38013;48.810;8.818;2022-12-05T08:53:40;13.35;;;7.97;;
50547;SDS011;38013;48.810;8.818;2022-12-05T08:56:06;11.85;;;7.07;;
50547;SDS011;38013;48.810;8.818;2022-12-05T08:58:34;12.85;;;7.63;;
50547;SDS011;38013;48.810;8.818;2022-12-05T09:01:04;13.40;;;8.23;;
50547;SDS011;38013;48.810;8.818;2022-12-05T09:03:37;12.93;;;7.28;;
50547;SDS011;38013;48.810;8.818;2022-12-05T09:08:35;12.23;;;7.43;;
50547;SDS011;38013;48.810;8.818;2022-12-05T09:11:05;10.95;;;6.47;;
50547;SDS011;38013;48.810;8.818;2022-12-05T09:13:37;11.95;;;7.93;;
50547;SDS011;38013;48.810;8.818;2022-12-05T09:16:11;10.57;;;7.00;;
50547;SDS011;38013;48.810;8.818;2022-12-05T09:18:39;10.52;;;6.45;;
50547;SDS011;38013;48.810;8.818;2022-12-05T09:21:06;10.38;;;6.40;;
50547;SDS011;38013;48.810;8.818;2022-12-05T09:23:35;10.88;;;6.15;;
50547;SDS011;38013;48.810;8.818;2022-12-05T09:26:02;10.70;;;6.47;;
50547;SDS011;38013;48.810;8.818;2022-12-05T09:28:29;10.05;;;5.90;;
50547;SDS011;38013;48.810;8.818;2022-12-05T09:31:00;10.60;;;6.07;;
50547;SDS011;38013;48.810;8.818;2022-12-05T09:33:28;10.00;;;5.75;;
50547;SDS011;38013;48.810;8.818;2022-12-05T09:35:56;11.13;;;6.18;;
50547;SDS011;38013;48.810;8.818;2022-12-05T09:38:23;8.57;;;5.60;;
50547;SDS011;38013;48.810;8.818;2022-12-05T09:50:24;9.07;;;6.07;;
50547;SDS011;38013;48.810;8.818;2022-12-05T09:52:58;8.63;;;5.47;;
50547;SDS011;38013;48.810;8.818;2022-12-05T09:55:53;9.02;;;5.32;;
50547;SDS011;38013;48.810;8.818;2022-12-05T09:58:42;8.40;;;5.65;;
50547;SDS011;38013;48.810;8.818;2022-12-05T10:01:24;8.77;;;5.22;;
50547;SDS011;38013;48.810;8.818;2022-12-05T10:04:18;8.55;;;5.00;;
50547;SDS011;38013;48.810;8.818;2022-12-05T10:09:53;9.32;;;5.28;;
50547;SDS011;38013;48.810;8.818;2022-12-05T10:12:52;7.47;;;4.40;;
50547;SDS011;38013;48.810;8.818;2022-12-05T10:15:41;9.05;;;5.43;;
50547;SDS011;38013;48.810;8.818;2022-12-05T10:26:29;8.65;;;5.15;;
50547;SDS011;38013;48.810;8.818;2022-12-05T10:34:44;10.05;;;4.72;;
50547;SDS011;38013;48.810;8.818;2022-12-05T10:37:21;8.07;;;5.10;;
50547;SDS011;38013;48.810;8.818;2022-12-05T10:39:48;7.35;;;4.43;;
50547;SDS011;38013;48.810;8.818;2022-12-05T10:42:25;6.72;;;4.43;;
50547;SDS011;38013;48.810;8.818;2022-12-05T10:44:56;7.75;;;4.68;;
50547;SDS011;38013;48.810;8.818;2022-12-05T10:47:24;8.32;;;4.68;;
50547;SDS011;38013;48.810;8.818;2022-12-05T10:49:51;14.13;;;5.03;;
50547;SDS011;38013;48.810;8.818;2022-12-05T10:52:18;9.18;;;4.68;;
50547;SDS011;38013;48.810;8.818;2022-12-05T10:54:48;7.57;;;5.15;;
50547;SDS011;38013;48.810;8.818;2022-12-05T10:57:22;8.85;;;5.00;;
50547;SDS011;38013;48.810;8.818;2022-12-05T10:59:51;7.20;;;4.40;;
50547;SDS011;38013;48.810;8.818;2022-12-05T11:04:53;8.43;;;4.57;;
50547;SDS011;38013;48.810;8.818;2022-12-05T11:09:56;7.07;;;4.30;;
50547;SDS011;38013;48.810;8.818;2022-12-05T11:12:28;7.13;;;4.60;;
50547;SDS011;38013;48.810;8.818;2022-12-05T11:15:03;8.05;;;4.57;;
50547;SDS011;38013;48.810;8.818;2022-12-05T11:17:53;6.63;;;4.43;;
50547;SDS011;38013;48.810;8.818;2022-12-05T11:22:50;6.68;;;3.95;;
50547;SDS011;38013;48.810;8.818;2022-12-05T11:25:28;7.22;;;3.90;;
50547;SDS011;38013;48.810;8.818;2022-12-05T11:27:59;7.13;;;4.10;;
50547;SDS011;38013;48.810;8.818;2022-12-05T11:30:41;8.13;;;4.50;;
50547;SDS011;38013;48.810;8.818;2022-12-05T11:33:59;10.35;;;7.45;;
50547;SDS011;38013;48.810;8.818;2022-12-05T11:36:43;10.80;;;7.63;;
50547;SDS011;38013;48.810;8.818;2022-12-05T11:39:15;8.48;;;4.88;;
50547;SDS011;38013;48.810;8.818;2022-12-05T11:41:51;7.45;;;4.40;;
50547;SDS011;38013;48.810;8.818;2022-12-05T11:47:39;6.90;;;4.00;;
50547;SDS011;38013;48.810;8.818;2022-12-05T11:50:32;5.43;;;3.53;;
50547;SDS011;38013;48.810;8.818;2022-12-05T11:56:36;5.60;;;3.28;;
50547;SDS011;38013;48.810;8.818;2022-12-05T12:16:20;5.47;;;3.05;;
50547;SDS011;38013;48.810;8.818;2022-12-05T12:18:56;4.72;;;2.50;;
50547;SDS011;38013;48.810;8.818;2022-12-05T12:22:06;4.90;;;2.55;;
50547;SDS011;38013;48.810;8.818;2022-12-05T12:28:02;3.88;;;1.90;;
50547;SDS011;38013;48.810;8.818;2022-12-05T12:33:43;3.78;;;2.30;;
50547;SDS011;38013;48.810;8.818;2022-12-05T12:36:32;3.50;;;1.80;;
50547;SDS011;38013;48.810;8.818;2022-12-05T12:39:30;3.42;;;1.88;;
50547;SDS011;38013;48.810;8.818;2022-12-05T12:42:23;3.10;;;1.60;;
50547;SDS011;38013;48.810;8.818;2022-12-05T12:50:50;3.35;;;1.70;;
50547;SDS011;38013;48.810;8.818;2022-12-05T12:53:23;4.40;;;1.70;;
50547;SDS011;38013;48.810;8.818;2022-12-05T13:01:48;3.45;;;1.67;;
50547;SDS011;38013;48.810;8.818;2022-12-05T13:04:44;2.88;;;1.50;;
50547;SDS011;38013;48.810;8.818;2022-12-05T13:07:30;2.50;;;1.37;;
50547;SDS011;38013;48.810;8.818;2022-12-05T13:10:15;2.78;;;1.52;;
50547;SDS011;38013;48.810;8.818;2022-12-05T13:12:49;3.05;;;1.52;;
50547;SDS011;38013;48.810;8.818;2022-12-05T13:15:21;2.80;;;1.40;;
50547;SDS011;38013;48.810;8.818;2022-12-05T13:17:57;2.83;;;1.40;;
50547;SDS011;38013;48.810;8.818;2022-12-05T13:20:24;5.25;;;3.17;;
50547;SDS011;38013;48.810;8.818;2022-12-05T13:22:54;4.70;;;2.63;;
50547;SDS011;38013;48.810;8.818;2022-12-05T13:25:21;2.90;;;1.85;;
50547;SDS011;38013;48.810;8.818;2022-12-05T13:27:54;3.20;;;1.70;;
50547;SDS011;38013;48.810;8.818;2022-12-05T13:30:24;2.80;;;1.40;;
50547;SDS011;38013;48.810;8.818;2022-12-05T13:32:58;3.38;;;1.70;;
50547;SDS011;38013;48.810;8.818;2022-12-05T13:35:31;5.15;;;1.60;;
50547;SDS011;38013;48.810;8.818;2022-12-05T13:38:22;3.53;;;1.65;;
50547;SDS011;38013;48.810;8.818;2022-12-05T13:41:15;3.58;;;1.63;;
50547;SDS011;38013;48.810;8.818;2022-12-05T13:44:00;2.75;;;1.33;;
50547;SDS011;38013;48.810;8.818;2022-12-05T13:46:30;3.45;;;1.70;;
50547;SDS011;38013;48.810;8.818;2022-12-05T13:49:04;3.60;;;1.98;;
50547;SDS011;38013;48.810;8.818;2022-12-05T13:51:54;8.38;;;4.30;;
50547;SDS011;38013;48.810;8.818;2022-12-05T13:54:40;6.72;;;4.28;;
50547;SDS011;38013;48.810;8.818;2022-12-05T14:07:51;6.80;;;4.30;;
50547;SDS011;38013;48.810;8.818;2022-12-05T14:13:00;7.03;;;4.50;;
50547;SDS011;38013;48.810;8.818;2022-12-05T14:15:51;5.45;;;3.50;;
50547;SDS011;38013;48.810;8.818;2022-12-05T14:21:48;6.00;;;3.22;;
50547;SDS011;38013;48.810;8.818;2022-12-05T14:24:37;6.32;;;3.80;;
50547;SDS011;38013;48.810;8.818;2022-12-05T14:30:32;7.05;;;3.40;;
50547;SDS011;38013;48.810;8.818;2022-12-05T14:33:17;6.35;;;3.78;;
50547;SDS011;38013;48.810;8.818;2022-12-05T14:35:47;6.07;;;3.47;;
50547;SDS011;38013;48.810;8.818;2022-12-05T14:38:18;6.13;;;3.35;;
50547;SDS011;38013;48.810;8.818;2022-12-05T14:40:55;8.80;;;3.97;;
50547;SDS011;38013;48.810;8.818;2022-12-05T14:43:38;7.40;;;4.20;;
50547;SDS011;38013;48.810;8.818;2022-12-05T14:46:07;7.72;;;5.40;;
50547;SDS011;38013;48.810;8.818;2022-12-05T14:48:47;9.13;;;4.95;;
50547;SDS011;38013;48.810;8.818;2022-12-05T14:54:09;7.00;;;4.50;;
50547;SDS011;38013;48.810;8.818;2022-12-05T14:57:20;10.07;;;4.85;;
50547;SDS011;38013;48.810;8.818;2022-12-05T14:59:58;9.45;;;4.47;;
50547;SDS011;38013;48.810;8.818;2022-12-05T15:02:31;6.95;;;4.07;;
50547;SDS011;38013;48.810;8.818;2022-12-05T15:08:01;7.07;;;4.43;;
50547;SDS011;38013;48.810;8.818;2022-12-05T15:10:32;6.70;;;4.28;;
50547;SDS011;38013;48.810;8.818;2022-12-05T15:13:03;11.00;;;4.93;;
50547;SDS011;38013;48.810;8.818;2022-12-05T15:18:20;6.90;;;4.28;;
50547;SDS011;38013;48.810;8.818;2022-12-05T15:21:06;7.55;;;4.25;;
50547;SDS011;38013;48.810;8.818;2022-12-05T15:23:46;8.80;;;3.92;;
50547;SDS011;38013;48.810;8.818;2022-12-05T15:29:05;7.22;;;4.30;;
50547;SDS011;38013;48.810;8.818;2022-12-05T15:31:47;7.18;;;4.20;;
50547;SDS011;38013;48.810;8.818;2022-12-05T15:37:45;7.75;;;4.32;;
50547;SDS011;38013;48.810;8.818;2022-12-05T15:40:15;7.65;;;4.65;;
50547;SDS011;38013;48.810;8.818;2022-12-05T15:42:46;7.78;;;4.47;;
50547;SDS011;38013;48.810;8.818;2022-12-05T15:45:18;9.13;;;5.25;;
50547;SDS011;38013;48.810;8.818;2022-12-05T15:53:31;12.63;;;7.22;;
50547;SDS011;38013;48.810;8.818;2022-12-05T15:56:24;11.00;;;6.32;;
50547;SDS011;38013;48.810;8.818;2022-12-05T15:58:57;15.07;;;5.80;;
50547;SDS011;38013;48.810;8.818;2022-12-05T16:01:32;9.45;;;5.25;;
50547;SDS011;38013;48.810;8.818;2022-12-05T16:04:20;8.60;;;4.97;;
50547;SDS011;38013;48.810;8.818;2022-12-05T16:07:08;10.48;;;6.03;;
50547;SDS011;38013;48.810;8.818;2022-12-05T16:09:38;9.43;;;6.25;;
50547;SDS011;38013;48.810;8.818;2022-12-05T16:12:17;17.80;;;9.85;;
50547;SDS011;38013;48.810;8.818;2022-12-05T16:15:04;26.95;;;13.88;;
50547;SDS011;38013;48.810;8.818;2022-12-05T16:17:39;26.67;;;14.15;;
50547;SDS011;38013;48.810;8.818;2022-12-05T16:20:11;15.45;;;8.88;;
50547;SDS011;38013;48.810;8.818;2022-12-05T16:22:53;10.57;;;6.63;;
50547;SDS011;38013;48.810;8.818;2022-12-05T16:25:30;8.85;;;5.82;;
50547;SDS011;38013;48.810;8.818;2022-12-05T16:30:32;7.72;;;4.50;;
50547;SDS011;38013;48.810;8.818;2022-12-05T16:33:03;10.80;;;5.13;;
50547;SDS011;38013;48.810;8.818;2022-12-05T16:35:40;8.35;;;4.55;;
50547;SDS011;38013;48.810;8.818;2022-12-05T16:38:21;8.18;;;4.72;;
50547;SDS011;38013;48.810;8.818;2022-12-05T16:41:00;8.20;;;4.85;;
50547;SDS011;38013;48.810;8.818;2022-12-05T16:48:35;10.63;;;5.68;;
50547;SDS011;38013;48.810;8.818;2022-12-05T16:53:54;9.35;;;4.80;;
50547;SDS011;38013;48.810;8.818;2022-12-05T16:58:54;10.02;;;5.75;;
50547;SDS011;38013;48.810;8.818;2022-12-05T17:01:24;8.75;;;5.40;;
50547;SDS011;38013;48.810;8.818;2022-12-05T17:03:51;8.52;;;4.78;;
50547;SDS011;38013;48.810;8.818;2022-12-05T17:06:18;9.27;;;4.93;;
50547;SDS011;38013;48.810;8.818;2022-12-05T17:08:45;7.03;;;4.30;;
50547;SDS011;38013;48.810;8.818;2022-12-05T17:11:30;7.90;;;4.78;;
50547;SDS011;38013;48.810;8.818;2022-12-05T17:13:59;8.52;;;5.40;;
50547;SDS011;38013;48.810;8.818;2022-12-05T17:16:25;11.15;;;6.25;;
50547;SDS011;38013;48.810;8.818;2022-12-05T17:18:51;12.30;;;6.40;;
50547;SDS011;38013;48.810;8.818;2022-12-05T17:21:18;10.98;;;6.55;;
50547;SDS011;38013;48.810;8.818;2022-12-05T17:23:48;9.82;;;5.97;;
50547;SDS011;38013;48.810;8.818;2022-12-05T17:26:15;9.68;;;5.43;;
50547;SDS011;38013;48.810;8.818;2022-12-05T17:28:43;7.70;;;4.85;;
50547;SDS011;38013;48.810;8.818;2022-12-05T17:31:13;23.45;;;13.30;;
50547;SDS011;38013;48.810;8.818;2022-12-05T17:33:47;12.95;;;6.53;;
50547;SDS011;38013;48.810;8.818;2022-12-05T17:36:15;8.43;;;5.18;;
50547;SDS011;38013;48.810;8.818;2022-12-05T17:38:42;8.85;;;4.80;;
50547;SDS011;38013;48.810;8.818;2022-12-05T17:41:15;8.48;;;4.60;;
50547;SDS011;38013;48.810;8.818;2022-12-05T17:43:43;10.38;;;6.00;;
50547;SDS011;38013;48.810;8.818;2022-12-05T17:46:11;14.05;;;7.90;;
50547;SDS011;38013;48.810;8.818;2022-12-05T17:48:44;10.82;;;6.93;;
50547;SDS011;38013;48.810;8.818;2022-12-05T17:51:11;9.27;;;5.15;;
50547;SDS011;38013;48.810;8.818;2022-12-05T17:53:38;7.95;;;5.03;;
50547;SDS011;38013;48.810;8.818;2022-12-05T17:56:05;7.30;;;4.40;;
50547;SDS011;38013;48.810;8.818;2022-12-05T17:58:32;9.07;;;5.55;;
50547;SDS011;38013;48.810;8.818;2022-12-05T18:00:58;9.65;;;5.32;;
50547;SDS011;38013;48.810;8.818;2022-12-05T18:03:25;7.90;;;5.05;;
50547;SDS011;38013;48.810;8.818;2022-12-05T18:05:51;10.65;;;5.40;;
50547;SDS011;38013;48.810;8.818;2022-12-05T18:08:17;9.10;;;4.47;;
50547;SDS011;38013;48.810;8.818;2022-12-05T18:10:43;8.50;;;4.97;;
50547;SDS011;38013;48.810;8.818;2022-12-05T18:13:11;7.82;;;5.05;;
50547;SDS011;38013;48.810;8.818;2022-12-05T18:15:38;7.57;;;4.43;;
50547;SDS011;38013;48.810;8.818;2022-12-05T18:18:04;8.57;;;3.97;;
50547;SDS011;38013;48.810;8.818;2022-12-05T18:20:32;7.15;;;3.92;;
50547;SDS011;38013;48.810;8.818;2022-12-05T18:22:58;10.48;;;4.82;;
50547;SDS011;38013;48.810;8.818;2022-12-05T18:25:25;9.32;;;4.65;;
50547;SDS011;38013;48.810;8.818;2022-12-05T18:27:51;6.75;;;4.43;;
50547;SDS011;38013;48.810;8.818;2022-12-05T18:30:17;9.30;;;5.13;;
50547;SDS011;38013;48.810;8.818;2022-12-05T18:32:43;7.28;;;4.25;;
50547;SDS011;38013;48.810;8.818;2022-12-05T18:35:09;6.30;;;3.83;;